createdAt,value
2023-02-24T00:00:32.645Z,91.40
2023-02-24T00:03:37.739Z,91.20
2023-02-24T00:06:41.041Z,91.20
2023-02-24T00:09:44.806Z,91.10
2023-02-24T00:12:49.896Z,91.00
2023-02-24T00:16:03.049Z,91.00
2023-02-24T00:19:07.652Z,91.20
2023-02-24T00:22:10.317Z,91.20
2023-02-24T00:25:13.033Z,91.00
2023-02-24T00:28:15.544Z,91.00
2023-02-24T00:31:20.586Z,91.00
2023-02-24T00:34:23.726Z,90.90
2023-02-24T00:37:26.052Z,91.00
2023-02-24T00:40:30.532Z,91.20
2023-02-24T00:43:37.406Z,91.00
2023-02-24T00:46:53.835Z,91.20
2023-02-24T00:49:56.788Z,91.10
2023-02-24T00:52:58.968Z,91.20
2023-02-24T00:56:02.328Z,91.30
2023-02-24T00:59:04.772Z,91.30
2023-02-24T01:02:12.925Z,91.30
2023-02-24T01:05:32.632Z,91.20
2023-02-24T01:08:40.321Z,91.20
2023-02-24T01:12:22.561Z,91.40
2023-02-24T01:15:25.943Z,91.50
2023-02-24T01:18:31.327Z,91.40
2023-02-24T01:21:33.756Z,91.30
2023-02-24T01:24:43.511Z,91.40
2023-02-24T01:27:46.885Z,91.60
2023-02-24T01:30:49.343Z,91.50
2023-02-24T01:33:52.377Z,91.60
2023-02-24T01:36:54.892Z,91.70
2023-02-24T01:39:57.469Z,91.80
2023-02-24T01:42:59.847Z,91.80
2023-02-24T01:46:02.029Z,91.70
2023-02-24T01:49:13.469Z,91.70
2023-02-24T01:52:20.754Z,91.70
2023-02-24T01:55:29.349Z,91.70
2023-02-24T01:58:39.634Z,91.50
2023-02-24T02:01:46.192Z,91.40
2023-02-24T02:05:03.926Z,91.60
2023-02-24T02:08:09.211Z,92.00
2023-02-24T02:11:15.309Z,91.60
2023-02-24T02:14:21.902Z,91.60
2023-02-24T02:17:51.454Z,91.70
2023-02-24T02:21:15.421Z,91.60
2023-02-24T02:24:42.138Z,91.60
2023-02-24T02:28:11.410Z,91.60
2023-02-24T02:31:23.114Z,91.90
2023-02-24T02:34:35.932Z,91.80
2023-02-24T02:38:03.405Z,91.90
2023-02-24T02:41:30.707Z,92.00
2023-02-24T02:45:07.884Z,92.00
2023-02-24T02:48:22.065Z,92.10
2023-02-24T02:51:38.971Z,92.00
2023-02-24T02:54:56.370Z,92.20
2023-02-24T02:58:01.829Z,92.20
2023-02-24T03:01:07.436Z,92.20
2023-02-24T03:04:23.074Z,92.30
2023-02-24T03:07:31.442Z,92.20
2023-02-24T03:10:34.573Z,92.30
2023-02-24T03:13:41.352Z,92.40
2023-02-24T03:16:52.216Z,92.40
2023-02-24T03:20:20.244Z,92.40
2023-02-24T03:23:31.132Z,92.50
2023-02-24T03:26:47.108Z,92.60
2023-02-24T03:30:09.844Z,92.70
2023-02-24T03:33:20.424Z,92.60
2023-02-24T03:36:23.385Z,92.80
2023-02-24T03:39:25.946Z,92.70
2023-02-24T03:42:34.016Z,92.60
2023-02-24T03:45:41.084Z,92.70
2023-02-24T03:48:51.290Z,92.70
2023-02-24T03:52:21.703Z,92.80
2023-02-24T03:56:02.049Z,92.90
2023-02-24T03:59:16.850Z,92.90
2023-02-24T04:02:25.476Z,92.90
2023-02-24T04:05:30.154Z,92.90
2023-02-24T04:08:42.578Z,92.80
2023-02-24T04:11:49.858Z,93.00
2023-02-24T04:14:57.112Z,93.00
2023-02-24T04:18:03.469Z,92.90
2023-02-24T04:21:08.036Z,92.80
2023-02-24T04:24:16.026Z,92.80
2023-02-24T04:27:19.944Z,93.00
2023-02-24T04:30:24.313Z,93.00
2023-02-24T04:33:26.715Z,92.80
2023-02-24T04:36:30.299Z,92.80
2023-02-24T04:39:32.965Z,92.80
2023-02-24T04:42:37.725Z,92.80
2023-02-24T04:45:40.460Z,92.70
2023-02-24T04:48:42.668Z,92.80
2023-02-24T04:51:45.252Z,92.70
2023-02-24T04:54:48.280Z,92.70
2023-02-24T04:57:53.787Z,92.80
2023-02-24T05:00:56.654Z,92.80
2023-02-24T05:04:01.853Z,93.00
2023-02-24T05:07:04.110Z,93.10
2023-02-24T05:10:07.471Z,93.10
2023-02-24T05:13:22.057Z,93.10
2023-02-24T05:16:24.310Z,93.10
2023-02-24T05:19:45.962Z,93.10
2023-02-24T05:22:54.077Z,93.20
2023-02-24T05:25:56.368Z,93.20
2023-02-24T05:29:00.012Z,93.10
2023-02-24T05:32:04.609Z,93.20
2023-02-24T05:35:07.742Z,93.30
2023-02-24T05:38:10.114Z,93.40
2023-02-24T05:41:18.485Z,93.20
2023-02-24T05:44:23.944Z,93.40
2023-02-24T05:47:27.178Z,93.30
2023-02-24T05:50:29.414Z,93.50
2023-02-24T05:53:31.502Z,93.30
2023-02-24T05:56:35.727Z,93.40
2023-02-24T05:59:39.814Z,93.50
2023-02-24T06:02:49.581Z,93.70
2023-02-24T06:05:54.948Z,93.50
2023-02-24T06:09:02.074Z,93.60
2023-02-24T06:12:04.324Z,93.60
2023-02-24T06:15:08.153Z,93.60
2023-02-24T06:18:11.789Z,93.70
2023-02-24T06:21:13.979Z,93.60
2023-02-24T06:24:18.205Z,93.40
2023-02-24T06:27:21.895Z,93.40
2023-02-24T06:30:25.332Z,93.40
2023-02-24T06:33:27.546Z,93.70
2023-02-24T06:36:29.662Z,93.60
2023-02-24T06:39:34.965Z,93.70
2023-02-24T06:42:39.402Z,93.70
2023-02-24T06:45:41.611Z,93.70
2023-02-24T06:48:45.140Z,93.60
2023-02-24T06:51:48.836Z,93.70
2023-02-24T06:54:52.594Z,93.80
2023-02-24T06:57:59.522Z,93.90
2023-02-24T07:01:02.861Z,94.00
2023-02-24T07:04:11.825Z,94.00
2023-02-24T07:07:14.653Z,94.20
2023-02-24T07:10:18.130Z,94.20
2023-02-24T07:13:20.369Z,94.10
2023-02-24T07:16:28.991Z,94.20
2023-02-24T07:19:32.560Z,94.40
2023-02-24T07:22:34.725Z,94.40
2023-02-24T07:25:36.972Z,94.40
2023-02-24T07:28:41.679Z,94.50
2023-02-24T07:31:43.933Z,94.70
2023-02-24T07:34:46.199Z,95.10
2023-02-24T07:37:48.765Z,95.70
2023-02-24T07:40:51.161Z,95.70
2023-02-24T07:43:55.133Z,94.90
2023-02-24T07:46:59.479Z,93.90
2023-02-24T07:50:03.141Z,92.90
2023-02-24T07:53:05.936Z,91.60
2023-02-24T07:56:19.084Z,90.30
2023-02-24T07:59:22.235Z,85.60
2023-02-24T08:02:24.813Z,81.70
2023-02-24T08:05:27.122Z,79.20
2023-02-24T08:08:29.477Z,77.20
2023-02-24T08:11:35.947Z,75.80
2023-02-24T08:14:44.948Z,74.80
2023-02-24T08:17:51.854Z,74.00
2023-02-24T08:20:54.426Z,72.20
2023-02-24T08:23:56.613Z,70.40
2023-02-24T08:27:05.552Z,70.90
2023-02-24T08:30:23.705Z,67.90
2023-02-24T08:33:30.345Z,68.60
2023-02-24T08:36:35.495Z,66.40
2023-02-24T08:39:37.708Z,65.40
2023-02-24T08:42:40.085Z,63.40
2023-02-24T08:45:52.198Z,63.50
2023-02-24T08:49:01.071Z,60.60
2023-02-24T08:52:07.368Z,59.20
2023-02-24T08:55:10.848Z,58.60
2023-02-24T08:58:18.431Z,56.20
2023-02-24T09:02:04.246Z,56.70
2023-02-24T09:05:14.006Z,54.80
2023-02-24T09:08:16.789Z,52.90
2023-02-24T09:11:23.198Z,53.80
2023-02-24T09:14:29.571Z,50.70
2023-02-24T09:17:50.417Z,49.30
2023-02-24T09:21:18.892Z,48.50
2023-02-24T09:24:30.207Z,53.50
2023-02-24T09:27:32.360Z,54.80
2023-02-24T09:30:39.681Z,60.30
2023-02-24T09:33:42.442Z,59.50
2023-02-24T09:37:01.659Z,57.00
2023-02-24T09:40:15.949Z,54.90
2023-02-24T09:43:28.062Z,54.70
2023-02-24T09:46:39.877Z,54.10
2023-02-24T09:49:46.739Z,59.10
2023-02-24T09:52:55.534Z,63.80
2023-02-24T09:56:06.891Z,57.50
2023-02-24T09:59:27.908Z,60.00
2023-02-24T10:02:46.387Z,57.90
2023-02-24T10:05:59.159Z,56.40
2023-02-24T10:09:36.952Z,55.90
2023-02-24T10:12:40.539Z,61.00
2023-02-24T10:15:57.573Z,59.60
2023-02-24T10:19:17.126Z,60.20
2023-02-24T10:22:28.603Z,58.50
2023-02-24T10:25:40.048Z,54.60
2023-02-24T10:29:09.273Z,57.50
2023-02-24T10:32:36.581Z,63.00
2023-02-24T10:35:39.077Z,61.50
2023-02-24T10:38:41.284Z,57.80
2023-02-24T10:41:46.309Z,52.80
2023-02-24T10:45:01.955Z,53.20
2023-02-24T10:48:07.565Z,49.10
2023-02-24T10:51:20.648Z,47.00
2023-02-24T10:54:44.919Z,46.40
2023-02-24T10:57:58.889Z,52.00
2023-02-24T11:01:13.622Z,57.10
2023-02-24T11:04:33.511Z,62.80
2023-02-24T11:07:48.355Z,62.80
2023-02-24T11:10:58.952Z,62.40
2023-02-24T11:14:21.333Z,64.80
2023-02-24T11:17:28.092Z,59.90
2023-02-24T11:20:48.612Z,58.70
2023-02-24T11:23:58.723Z,54.90
2023-02-24T11:27:02.901Z,53.00
2023-02-24T11:30:43.503Z,53.80
2023-02-24T11:34:13.578Z,50.30
2023-02-24T11:37:51.457Z,50.60
2023-02-24T11:41:05.519Z,57.30
2023-02-24T11:44:28.670Z,61.40
2023-02-24T11:47:50.888Z,63.60
2023-02-24T11:51:16.378Z,64.90
2023-02-24T11:54:18.755Z,68.60
2023-02-24T11:57:29.313Z,72.10
2023-02-24T12:00:37.469Z,74.00
2023-02-24T12:04:01.439Z,74.80
2023-02-24T12:07:09.885Z,76.40
2023-02-24T12:10:32.520Z,77.80
2023-02-24T12:14:05.145Z,79.20
2023-02-24T12:17:18.628Z,78.00
2023-02-24T12:20:42.580Z,78.80
2023-02-24T12:23:46.942Z,77.70
2023-02-24T12:27:12.646Z,76.10
2023-02-24T12:30:49.223Z,76.20
2023-02-24T12:34:27.773Z,75.80
2023-02-24T12:37:51.230Z,76.40
2023-02-24T12:41:15.585Z,77.70
2023-02-24T12:44:55.144Z,77.40
2023-02-24T12:48:24.140Z,77.60
2023-02-24T12:51:40.534Z,77.20
2023-02-24T12:55:01.143Z,76.90
2023-02-24T12:58:14.005Z,75.70
2023-02-24T13:01:28.406Z,73.80
2023-02-24T13:04:49.042Z,73.70
2023-02-24T13:08:09.682Z,71.90
2023-02-24T13:11:23.300Z,70.30
2023-02-24T13:14:37.465Z,70.30
2023-02-24T13:17:48.221Z,69.40
2023-02-24T13:21:04.016Z,70.80
2023-02-24T13:24:06.426Z,69.10
2023-02-24T13:27:17.256Z,69.40
2023-02-24T13:30:45.217Z,70.70
2023-02-24T13:33:48.743Z,71.10
2023-02-24T13:36:51.355Z,72.50
2023-02-24T13:39:55.813Z,72.80
2023-02-24T13:43:00.285Z,72.40
2023-02-24T13:46:16.386Z,71.90
2023-02-24T13:49:23.056Z,72.20
2023-02-24T13:52:34.644Z,72.20
2023-02-24T13:55:58.446Z,72.40
2023-02-24T13:59:19.317Z,72.60
2023-02-24T14:02:30.428Z,73.70
2023-02-24T14:05:35.691Z,74.00
2023-02-24T14:08:44.307Z,73.00
2023-02-24T14:11:46.561Z,72.70
2023-02-24T14:14:49.540Z,72.80
2023-02-24T14:18:03.219Z,72.70
2023-02-24T14:21:05.561Z,73.60
2023-02-24T14:24:13.378Z,73.80
2023-02-24T14:27:26.684Z,74.00
2023-02-24T14:30:40.247Z,73.00
2023-02-24T14:33:45.157Z,73.00
2023-02-24T14:36:49.439Z,72.80
2023-02-24T14:39:57.365Z,72.60
2023-02-24T14:43:00.472Z,72.60
2023-02-24T14:46:06.216Z,71.90
2023-02-24T14:49:19.547Z,70.70
2023-02-24T14:52:46.532Z,70.60
2023-02-24T14:55:51.904Z,71.20
2023-02-24T14:59:22.258Z,71.10
2023-02-24T15:02:31.073Z,72.70
2023-02-24T15:05:33.734Z,74.00
2023-02-24T15:08:41.504Z,76.80
2023-02-24T15:11:43.971Z,76.50
2023-02-24T15:14:57.060Z,75.50
2023-02-24T15:18:09.309Z,73.80
2023-02-24T15:21:40.360Z,74.30
2023-02-24T15:24:42.595Z,76.50
2023-02-24T15:27:59.774Z,75.70
2023-02-24T15:31:05.046Z,76.30
2023-02-24T15:34:20.836Z,76.10
2023-02-24T15:37:24.694Z,76.30
2023-02-24T15:40:28.255Z,76.80
2023-02-24T15:43:38.770Z,77.10
2023-02-24T15:46:41.160Z,77.60
2023-02-24T15:49:43.482Z,79.10
2023-02-24T15:52:45.777Z,81.30
2023-02-24T15:55:47.941Z,81.50
2023-02-24T15:58:50.235Z,82.30
2023-02-24T16:01:52.620Z,81.90
2023-02-24T16:04:54.908Z,82.00
2023-02-24T16:07:57.384Z,81.90
2023-02-24T16:11:00.277Z,81.70
2023-02-24T16:14:02.618Z,83.40
2023-02-24T16:17:11.206Z,83.60
2023-02-24T16:20:18.370Z,84.20
2023-02-24T16:23:26.136Z,86.20
2023-02-24T16:26:28.720Z,88.40
2023-02-24T16:29:31.944Z,89.40
2023-02-24T16:32:34.354Z,89.00
2023-02-24T16:35:39.078Z,90.60
2023-02-24T16:38:43.480Z,91.30
2023-02-24T16:41:45.971Z,91.40
2023-02-24T16:44:51.324Z,92.30
2023-02-24T16:47:57.796Z,92.30
2023-02-24T16:51:00.557Z,92.60
2023-02-24T16:54:03.823Z,92.50
2023-02-24T16:57:06.304Z,92.70
2023-02-24T17:00:10.219Z,92.80
2023-02-24T17:03:27.262Z,92.80
2023-02-24T17:06:29.838Z,93.10
2023-02-24T17:09:33.744Z,94.00
2023-02-24T17:12:36.242Z,94.10
2023-02-24T17:15:39.054Z,94.30
2023-02-24T17:18:41.391Z,94.80
2023-02-24T17:21:53.850Z,95.20
2023-02-24T17:24:56.195Z,95.40
2023-02-24T17:27:59.144Z,95.20
2023-02-24T17:31:01.485Z,94.30
2023-02-24T17:34:06.219Z,94.90
2023-02-24T17:37:08.546Z,94.50
2023-02-24T17:40:11.834Z,93.80
2023-02-24T17:43:14.249Z,93.50
2023-02-24T17:46:16.515Z,93.10
2023-02-24T17:49:18.786Z,93.30
2023-02-24T17:52:21.223Z,93.50
2023-02-24T17:55:24.621Z,93.50
2023-02-24T17:58:26.741Z,93.70
2023-02-24T18:01:29.218Z,93.90
2023-02-24T18:04:31.934Z,93.90
2023-02-24T18:07:37.764Z,94.00
2023-02-24T18:10:40.212Z,94.10
2023-02-24T18:13:42.389Z,94.50
2023-02-24T18:16:44.894Z,94.80
2023-02-24T18:19:48.233Z,94.90
2023-02-24T18:22:50.371Z,94.90
2023-02-24T18:25:52.500Z,94.40
2023-02-24T18:28:54.900Z,94.20
2023-02-24T18:31:57.770Z,94.10
2023-02-24T18:35:00.216Z,94.00
2023-02-24T18:38:03.069Z,93.60
2023-02-24T18:41:11.610Z,93.60
2023-02-24T18:44:13.896Z,93.60
2023-02-24T18:47:16.102Z,93.90
2023-02-24T18:50:19.076Z,94.00
2023-02-24T18:53:23.329Z,93.80
2023-02-24T18:56:27.380Z,93.70
2023-02-24T18:59:29.717Z,93.70
2023-02-24T19:02:32.134Z,93.80
2023-02-24T19:05:38.832Z,93.40
2023-02-24T19:08:42.740Z,93.30
2023-02-24T19:11:45.113Z,93.30
2023-02-24T19:14:51.786Z,93.70
2023-02-24T19:17:53.901Z,93.60
2023-02-24T19:20:56.226Z,93.60
2023-02-24T19:24:08.403Z,93.20
2023-02-24T19:27:10.672Z,93.60
2023-02-24T19:30:12.986Z,93.40
2023-02-24T19:33:15.542Z,93.30
2023-02-24T19:36:17.658Z,92.80
2023-02-24T19:39:20.346Z,93.20
2023-02-24T19:42:22.526Z,93.40
2023-02-24T19:45:29.454Z,93.80
2023-02-24T19:48:35.749Z,93.40
2023-02-24T19:51:38.020Z,94.30
2023-02-24T19:54:40.250Z,94.60
2023-02-24T19:57:42.433Z,94.60
2023-02-24T20:00:44.608Z,94.60
2023-02-24T20:03:46.856Z,94.20
2023-02-24T20:06:49.136Z,94.30
2023-02-24T20:09:51.397Z,94.50
2023-02-24T20:12:54.398Z,94.70
2023-02-24T20:16:12.280Z,94.80
2023-02-24T20:19:18.259Z,95.10
2023-02-24T20:22:21.315Z,95.20
2023-02-24T20:25:24.002Z,95.70
2023-02-24T20:28:27.406Z,96.00
2023-02-24T20:31:30.342Z,95.90
2023-02-24T20:34:37.797Z,96.10
2023-02-24T20:37:40.204Z,96.20
2023-02-24T20:40:42.902Z,96.10
2023-02-24T20:43:45.041Z,96.00
2023-02-24T20:46:47.511Z,96.20
2023-02-24T20:49:52.383Z,96.20
2023-02-24T20:52:55.333Z,96.30
2023-02-24T20:56:05.960Z,96.40
2023-02-24T20:59:12.605Z,96.50
2023-02-24T21:02:14.837Z,96.30
2023-02-24T21:05:28.342Z,96.00
2023-02-24T21:08:30.566Z,96.30
2023-02-24T21:11:33.673Z,96.60
2023-02-24T21:14:35.814Z,96.60
2023-02-24T21:17:39.667Z,96.90
2023-02-24T21:20:41.779Z,97.00
2023-02-24T21:23:44.957Z,97.00
2023-02-24T21:26:47.631Z,96.90
2023-02-24T21:29:49.874Z,97.10
2023-02-24T21:32:52.086Z,97.20
2023-02-24T21:36:03.557Z,97.30
2023-02-24T21:39:06.803Z,97.40
2023-02-24T21:42:10.190Z,97.30
2023-02-24T21:45:14.019Z,97.70
2023-02-24T21:48:17.200Z,97.40
2023-02-24T21:51:19.510Z,97.30
2023-02-24T21:54:22.281Z,97.40
2023-02-24T21:57:24.709Z,97.40
2023-02-24T22:00:28.930Z,97.70
2023-02-24T22:03:31.321Z,97.40
2023-02-24T22:06:35.791Z,97.50
2023-02-24T22:09:38.389Z,97.40
2023-02-24T22:12:40.914Z,97.80
2023-02-24T22:15:43.063Z,97.80
2023-02-24T22:18:46.423Z,97.80
2023-02-24T22:21:48.579Z,98.10
2023-02-24T22:24:51.757Z,98.10
2023-02-24T22:27:54.102Z,98.00
2023-02-24T22:30:57.954Z,98.00
2023-02-24T22:34:01.038Z,98.00
2023-02-24T22:37:03.818Z,98.20
2023-02-24T22:40:06.782Z,98.20
2023-02-24T22:43:10.226Z,98.20
2023-02-24T22:46:18.806Z,98.10
2023-02-24T22:49:21.012Z,98.00
2023-02-24T22:52:23.175Z,98.30
2023-02-24T22:55:25.501Z,98.10
2023-02-24T22:58:27.738Z,98.00
2023-02-24T23:01:33.475Z,97.80
2023-02-24T23:04:36.409Z,97.80
2023-02-24T23:07:38.521Z,97.80
2023-02-24T23:10:40.609Z,97.80
2023-02-24T23:13:44.910Z,97.60
2023-02-24T23:16:54.821Z,97.70
2023-02-24T23:19:58.858Z,97.80
2023-02-24T23:23:01.990Z,98.10
2023-02-24T23:26:05.601Z,98.10
2023-02-24T23:29:08.662Z,98.40
2023-02-24T23:32:10.842Z,98.40
2023-02-24T23:35:14.366Z,98.40
2023-02-24T23:38:17.664Z,98.60
2023-02-24T23:41:20.402Z,98.60
2023-02-24T23:44:22.569Z,98.60
2023-02-24T23:47:24.760Z,98.60
2023-02-24T23:50:27.022Z,98.50
2023-02-24T23:53:29.135Z,98.50
2023-02-24T23:56:33.659Z,98.50
2023-02-24T23:59:37.773Z,98.30
